Time;durP1;ratioP1;P1;durP2;ratioP2;P2;SDS_P1;SDS_P2;PMS_P1;PMS_P2;Temp;Humidity;BMP_temperature;BMP_pressure;BME280_temperature;BME280_humidity;BME280_pressure;Samples;Min_cycle;Max_cycle;Signal;HPM_P1;HPM_P2
2023/12/21 00:00:34;;;;;;;5.10;1.75;;;;;;;7.90;63.29;99192.84;5014704;28;100520;-87
2023/12/21 00:03:00;;;;;;;5.20;1.67;;;;;;;7.68;63.55;99154.53;5031413;27;100799;-88
2023/12/21 00:05:25;;;;;;;4.82;2.10;;;;;;;7.90;63.35;99166.69;4997394;28;97115;-87
2023/12/21 00:07:51;;;;;;;6.30;1.77;;;;;;;7.83;63.63;99168.72;5014190;28;96679;-87
2023/12/21 00:10:16;;;;;;;2.67;1.33;;;;;;;7.93;63.58;99177.03;5013899;27;101458;-88
2023/12/21 00:12:42;;;;;;;5.88;1.85;;;;;;;7.82;63.50;99137.41;4997546;28;100071;-87
2023/12/21 00:15:08;;;;;;;3.45;2.10;;;;;;;7.83;63.87;99141.75;5032821;28;97907;-88
2023/12/21 00:17:33;;;;;;;6.03;2.30;;;;;;;7.80;63.97;99134.03;5014702;28;97460;-87
2023/12/21 00:19:59;;;;;;;5.32;2.60;;;;;;;7.91;64.17;99150.09;5031416;28;97832;-87
2023/12/21 00:22:24;;;;;;;5.53;2.10;;;;;;;7.66;64.65;99118.94;5031400;28;98157;-87
2023/12/21 00:24:50;;;;;;;4.75;1.58;;;;;;;7.87;64.18;99151.16;5030784;28;96687;-88
2023/12/21 00:27:15;;;;;;;2.78;1.40;;;;;;;7.97;64.17;99152.50;5035739;28;96942;-87
2023/12/21 00:29:41;;;;;;;4.10;1.70;;;;;;;8.02;64.01;99136.59;5019287;28;98477;-87
2023/12/21 00:32:06;;;;;;;3.55;1.55;;;;;;;8.01;64.12;99137.53;5020715;28;98320;-87
2023/12/21 00:34:32;;;;;;;3.22;1.80;;;;;;;8.02;64.17;99124.38;5020306;28;97236;-87
2023/12/21 00:36:57;;;;;;;4.63;2.05;;;;;;;8.01;64.02;99125.28;5004249;28;97378;-86
2023/12/21 00:39:23;;;;;;;2.00;1.30;;;;;;;7.83;64.37;99095.56;5036963;28;100828;-87
2023/12/21 00:41:49;;;;;;;3.63;1.60;;;;;;;7.67;64.82;99079.66;5038153;28;97020;-86
2023/12/21 00:44:14;;;;;;;2.97;1.77;;;;;;;7.68;65.22;99099.69;5020756;28;96865;-87
2023/12/21 00:46:40;;;;;;;3.83;1.58;;;;;;;7.60;65.42;99090.47;5021481;28;96716;-87
2023/12/21 00:49:05;;;;;;;4.22;1.83;;;;;;;7.41;65.98;99088.59;5018561;27;101413;-87
2023/12/21 00:51:31;;;;;;;3.75;1.60;;;;;;;7.34;66.51;99099.34;5021442;28;100750;-87
2023/12/21 00:53:56;;;;;;;3.70;1.95;;;;;;;7.12;67.55;99091.50;5019134;27;96809;-88
2023/12/21 00:56:22;;;;;;;3.22;1.83;;;;;;;7.13;67.67;99101.06;5001332;27;96800;-88
2023/12/21 00:58:47;;;;;;;3.13;1.42;;;;;;;6.98;67.51;99079.88;5040343;27;97485;-88
2023/12/21 01:01:13;;;;;;;3.88;1.75;;;;;;;6.64;68.08;99043.81;5023995;27;100909;-88
2023/12/21 01:03:39;;;;;;;4.15;1.73;;;;;;;6.82;68.32;99077.91;5040965;27;96782;-87
2023/12/21 01:06:05;;;;;;;2.00;1.30;;;;;;;6.57;69.47;99060.56;5058979;27;96890;-88
2023/12/21 01:08:30;;;;;;;2.47;1.60;;;;;;;6.46;69.52;99047.97;5023716;27;97446;-88
2023/12/21 01:10:55;;;;;;;3.20;1.70;;;;;;;6.52;69.57;99067.75;5041133;27;99851;-88
2023/12/21 01:13:21;;;;;;;3.63;1.70;;;;;;;6.49;70.08;99070.47;5058712;27;96992;-87
2023/12/21 01:15:46;;;;;;;3.00;1.60;;;;;;;6.45;69.80;99066.25;5024317;27;97040;-88
2023/12/21 01:18:12;;;;;;;2.83;1.55;;;;;;;6.50;69.98;99054.75;5054248;27;97255;-88
2023/12/21 01:20:37;;;;;;;3.08;1.70;;;;;;;6.37;69.90;99048.31;5006082;27;100041;-88
2023/12/21 01:23:03;;;;;;;3.88;2.65;;;;;;;6.35;70.04;99053.56;5022421;27;97777;-87
2023/12/21 01:25:29;;;;;;;4.18;2.60;;;;;;;6.26;70.62;99048.69;5021265;27;96854;-87
2023/12/21 01:27:54;;;;;;;4.85;3.33;;;;;;;6.28;70.75;99048.63;5049473;27;97955;-86
2023/12/21 01:30:21;;;;;;;4.22;2.90;;;;;;;6.23;71.10;99032.31;5023493;27;97959;-87
2023/12/21 01:32:47;;;;;;;4.22;3.05;;;;;;;6.25;70.56;99025.28;5023272;27;96759;-86
2023/12/21 01:35:12;;;;;;;5.07;2.75;;;;;;;6.23;70.38;99011.47;5023832;27;97981;-87
2023/12/21 01:37:38;;;;;;;5.53;2.53;;;;;;;6.21;70.47;99001.09;5018584;27;101589;-87
2023/12/21 01:40:04;;;;;;;4.95;2.80;;;;;;;6.29;70.65;99009.47;5003423;27;101310;-87
2023/12/21 01:42:29;;;;;;;5.10;2.63;;;;;;;6.39;70.60;98996.09;5034279;27;96735;-86
2023/12/21 01:44:55;;;;;;;3.85;2.22;;;;;;;6.47;69.94;98989.69;5003976;27;97413;-87
2023/12/21 01:47:21;;;;;;;3.58;2.00;;;;;;;6.50;69.97;98991.31;5002476;27;101179;-87
2023/12/21 01:49:48;;;;;;;4.28;2.05;;;;;;;6.48;69.51;98977.50;5002704;27;101291;-86
2023/12/21 01:52:14;;;;;;;3.35;1.85;;;;;;;6.34;70.35;98978.00;5037569;27;96770;-87
2023/12/21 01:54:40;;;;;;;4.60;2.10;;;;;;;6.35;70.38;98964.09;5019656;27;96898;-86
2023/12/21 01:57:05;;;;;;;3.13;2.10;;;;;;;6.38;70.73;98955.31;5019959;27;98102;-87
2023/12/21 01:59:31;;;;;;;3.45;1.85;;;;;;;6.36;70.65;98950.16;5036326;27;97904;-87
2023/12/21 02:02:00;;;;;;;3.08;2.00;;;;;;;6.38;70.64;98942.28;5036825;27;96784;-87
2023/12/21 02:04:26;;;;;;;2.83;1.60;;;;;;;6.47;70.46;98936.72;5037416;27;96752;-87
2023/12/21 02:06:51;;;;;;;3.65;1.77;;;;;;;6.40;70.03;98899.59;5020060;27;100592;-87
2023/12/21 02:09:17;;;;;;;2.15;1.35;;;;;;;6.58;70.03;98906.69;5019811;27;98134;-87
2023/12/21 02:11:42;;;;;;;2.97;1.40;;;;;;;6.76;69.44;98915.53;5017719;27;97037;-87
2023/12/21 02:14:08;;;;;;;2.25;1.40;;;;;;;6.70;69.31;98907.09;4999991;28;97115;-87
2023/12/21 02:16:49;;;;;;;2.53;1.10;;;;;;;6.69;69.02;98900.19;5013241;27;101134;-88
2023/12/21 02:19:16;;;;;;;3.13;0.93;;;;;;;6.77;69.12;98879.84;5036098;27;101516;-88
2023/12/21 02:21:41;;;;;;;1.80;0.90;;;;;;;6.84;69.00;98873.47;5037092;27;96815;-87
2023/12/21 02:24:14;;;;;;;3.17;0.90;;;;;;;6.91;68.88;98880.13;5036010;27;97394;-88
2023/12/21 02:26:40;;;;;;;1.80;0.93;;;;;;;6.93;68.29;98867.88;5035348;27;98754;-88
2023/12/21 02:29:06;;;;;;;3.13;1.25;;;;;;;6.86;67.99;98856.00;5027288;27;98550;-88
2023/12/21 02:31:31;;;;;;;1.63;1.00;;;;;;;6.89;67.87;98855.84;5019862;27;96942;-87
2023/12/21 02:33:57;;;;;;;1.15;0.82;;;;;;;6.75;68.19;98825.16;5023962;28;96891;-87
2023/12/21 02:36:22;;;;;;;1.13;0.80;;;;;;;6.99;67.67;98843.28;5051890;27;98114;-87
2023/12/21 02:38:48;;;;;;;1.38;0.80;;;;;;;6.95;67.37;98832.16;5013449;27;97747;-89
2023/12/21 02:41:13;;;;;;;1.65;0.80;;;;;;;7.00;67.19;98827.56;5020534;27;96810;-88
2023/12/21 02:43:39;;;;;;;0.93;0.80;;;;;;;6.93;67.18;98817.47;5019751;27;96832;-88
2023/12/21 02:46:04;;;;;;;1.45;0.75;;;;;;;6.99;66.98;98804.16;5054852;27;97359;-88
2023/12/21 02:48:30;;;;;;;5.05;0.75;;;;;;;7.09;66.78;98800.22;5019645;27;97411;-86
2023/12/21 02:50:56;;;;;;;1.30;0.85;;;;;;;7.17;67.25;98803.34;5033232;27;96789;-88
2023/12/21 02:53:21;;;;;;;1.45;0.80;;;;;;;7.17;66.68;98786.84;5002721;27;98452;-87
2023/12/21 02:55:47;;;;;;;1.25;0.77;;;;;;;7.06;66.46;98774.25;5023377;27;98170;-87
2023/12/21 02:58:12;;;;;;;1.30;0.73;;;;;;;7.09;66.63;98773.28;5019311;27;100582;-86
2023/12/21 03:00:38;;;;;;;0.98;0.80;;;;;;;7.03;66.67;98754.38;5035986;27;97263;-87
2023/12/21 03:03:03;;;;;;;0.82;0.55;;;;;;;7.12;66.70;98758.31;5019832;27;96823;-87
2023/12/21 03:05:29;;;;;;;0.65;0.50;;;;;;;7.06;66.66;98760.38;5036554;27;97940;-87
2023/12/21 03:07:54;;;;;;;0.93;0.60;;;;;;;6.93;66.96;98742.66;5035465;27;98139;-87
2023/12/21 03:10:20;;;;;;;1.70;0.80;;;;;;;7.05;67.17;98740.41;5027479;27;97324;-87
2023/12/21 03:12:45;;;;;;;0.55;0.50;;;;;;;6.94;66.60;98744.34;5022551;27;96777;-86
2023/12/21 03:15:11;;;;;;;0.30;0.30;;;;;;;6.96;67.02;98733.84;5015561;27;100840;-87
2023/12/21 03:17:36;;;;;;;1.13;0.55;;;;;;;7.05;67.19;98725.59;5018234;27;100288;-86
2023/12/21 03:20:03;;;;;;;0.80;0.50;;;;;;;7.09;66.68;98732.38;5016036;27;97032;-87
2023/12/21 03:22:29;;;;;;;0.28;0.22;;;;;;;7.11;66.83;98722.72;5026714;28;96761;-86
2023/12/21 03:24:54;;;;;;;1.15;0.63;;;;;;;7.07;66.75;98710.75;5032345;27;98506;-87
2023/12/21 03:27:20;;;;;;;0.70;0.50;;;;;;;6.95;66.81;98682.56;5019343;27;97789;-86
2023/12/21 03:29:45;;;;;;;0.70;0.45;;;;;;;6.94;67.14;98694.78;5025434;27;97660;-85
2023/12/21 03:32:11;;;;;;;0.80;0.50;;;;;;;7.06;67.17;98692.53;5045364;27;96653;-87
2023/12/21 03:34:37;;;;;;;0.85;0.50;;;;;;;7.03;67.26;98688.28;4994053;27;101105;-86
2023/12/21 03:37:02;;;;;;;0.65;0.40;;;;;;;6.93;66.93;98656.56;5018766;27;98004;-86
2023/12/21 03:39:28;;;;;;;0.73;0.50;;;;;;;7.01;67.31;98675.34;5022654;27;96785;-85
2023/12/21 03:41:53;;;;;;;0.75;0.40;;;;;;;6.89;67.17;98638.50;5002768;27;96806;-86
2023/12/21 03:44:20;;;;;;;0.73;0.40;;;;;;;6.97;67.08;98659.88;5012646;27;100656;-87
2023/12/21 03:46:45;;;;;;;0.85;0.50;;;;;;;6.95;67.12;98656.47;5018245;27;101029;-85
2023/12/21 03:49:11;;;;;;;2.47;0.50;;;;;;;6.96;67.73;98646.00;5017203;27;96836;-87
2023/12/21 03:51:36;;;;;;;0.85;0.68;;;;;;;6.93;67.40;98650.50;5036076;27;96751;-87
2023/12/21 03:54:02;;;;;;;1.05;0.70;;;;;;;6.78;67.07;98626.81;5026660;27;98459;-87
2023/12/21 03:56:27;;;;;;;1.55;0.50;;;;;;;6.82;67.12;98635.34;5015132;28;98171;-87
2023/12/21 03:58:53;;;;;;;1.23;0.60;;;;;;;6.89;67.29;98628.91;5016960;27;96810;-87
2023/12/21 04:01:25;;;;;;;1.02;0.60;;;;;;;6.89;67.21;98625.47;5001589;27;96802;-88
2023/12/21 04:03:51;;;;;;;1.60;0.50;;;;;;;6.93;67.55;98630.47;5018149;27;97959;-86
2023/12/21 04:06:16;;;;;;;0.88;0.50;;;;;;;6.86;66.94;98623.84;5001574;27;101177;-88
2023/12/21 04:08:42;;;;;;;0.43;0.30;;;;;;;6.93;66.80;98612.22;5035147;27;96734;-88
2023/12/21 04:11:07;;;;;;;0.28;0.28;;;;;;;6.83;67.51;98610.94;5015150;28;96825;-89
2023/12/21 04:13:33;;;;;;;0.70;0.50;;;;;;;6.89;67.15;98610.66;5016999;27;101107;-89
2023/12/21 04:15:58;;;;;;;0.20;0.20;;;;;;;6.88;67.48;98610.75;5018242;27;99833;-88
2023/12/21 04:18:24;;;;;;;0.43;0.30;;;;;;;6.94;67.45;98595.66;5018293;27;97224;-88
2023/12/21 04:20:49;;;;;;;2.20;0.55;;;;;;;6.96;66.80;98599.03;5018378;27;96825;-88
2023/12/21 04:23:15;;;;;;;0.40;0.30;;;;;;;7.00;67.06;98592.75;5015692;27;100050;-88
2023/12/21 04:25:40;;;;;;;2.38;0.45;;;;;;;6.96;67.72;98582.53;5014364;28;100799;-87
2023/12/21 04:28:06;;;;;;;0.50;0.50;;;;;;;6.99;67.63;98582.41;5009710;27;96849;-86
2023/12/21 04:30:32;;;;;;;0.50;0.30;;;;;;;7.02;67.67;98587.47;5001687;27;96838;-87
2023/12/21 04:32:58;;;;;;;1.20;0.40;;;;;;;6.76;67.58;98565.22;5024158;27;100225;-86
2023/12/21 04:35:23;;;;;;;0.77;0.40;;;;;;;6.84;67.63;98575.28;5018309;27;96749;-87
2023/12/21 04:37:49;;;;;;;2.03;0.60;;;;;;;6.92;67.76;98591.41;5026873;27;96717;-86
2023/12/21 04:40:15;;;;;;;0.73;0.40;;;;;;;6.89;67.98;98573.28;5017490;27;96865;-87
2023/12/21 04:42:42;;;;;;;0.73;0.50;;;;;;;6.96;67.89;98582.53;5019338;27;98013;-88
2023/12/21 04:45:08;;;;;;;0.50;0.50;;;;;;;6.92;68.14;98574.03;5034302;27;98362;-87
2023/12/21 04:47:35;;;;;;;1.33;0.50;;;;;;;7.00;68.46;98576.25;5033725;27;96909;-87
2023/12/21 04:50:00;;;;;;;1.33;0.50;;;;;;;6.98;68.22;98572.88;5033927;27;96906;-87
2023/12/21 04:52:26;;;;;;;0.85;0.80;;;;;;;6.88;68.58;98561.19;5051973;27;97398;-86
2023/12/21 04:54:52;;;;;;;0.63;0.40;;;;;;;6.84;68.84;98554.44;5017076;27;97618;-87
2023/12/21 04:57:18;;;;;;;1.27;0.55;;;;;;;6.95;68.48;98547.78;5016647;27;97330;-87
2023/12/21 04:59:43;;;;;;;0.50;0.50;;;;;;;6.89;68.56;98542.84;5017715;27;96876;-88
2023/12/21 05:02:09;;;;;;;1.20;0.52;;;;;;;6.88;68.41;98535.94;5052047;27;98232;-88
2023/12/21 05:04:34;;;;;;;1.15;0.60;;;;;;;7.06;68.25;98539.44;5022982;27;97949;-87
2023/12/21 05:07:01;;;;;;;1.13;0.50;;;;;;;6.91;68.42;98522.75;5034322;27;97093;-88
2023/12/21 05:09:27;;;;;;;1.42;0.50;;;;;;;6.96;68.17;98531.22;5033798;27;97188;-88
2023/12/21 05:11:52;;;;;;;1.23;0.70;;;;;;;6.92;67.87;98526.19;5021250;27;99898;-88
2023/12/21 05:14:18;;;;;;;0.40;0.40;;;;;;;7.07;67.84;98542.88;5025516;27;97174;-88
2023/12/21 05:16:44;;;;;;;1.05;0.52;;;;;;;7.01;67.85;98542.28;5027144;27;97166;-90
2023/12/21 05:19:09;;;;;;;2.10;0.73;;;;;;;7.12;67.82;98551.34;5017108;28;97040;-89
2023/12/21 05:21:35;;;;;;;0.68;0.50;;;;;;;7.05;67.85;98550.78;5012511;27;100869;-90
2023/12/21 05:24:00;;;;;;;3.25;0.50;;;;;;;7.07;67.54;98550.72;5007863;28;101675;-90
2023/12/21 05:26:26;;;;;;;0.75;0.50;;;;;;;7.17;67.76;98546.75;5026698;27;96811;-90
2023/12/21 05:28:53;;;;;;;3.30;0.68;;;;;;;7.12;67.14;98531.31;5020845;27;96871;-87
2023/12/21 05:31:23;;;;;;;1.30;0.95;;;;;;;7.24;66.83;98553.34;5021704;27;96958;-89
2023/12/21 05:33:49;;;;;;;0.95;0.60;;;;;;;7.11;67.12;98536.63;4997888;28;101294;-83
2023/12/21 05:36:24;;;;;;;2.25;0.73;;;;;;;7.00;66.90;98530.13;5022022;27;96825;-90
2023/12/21 05:38:50;;;;;;;1.48;0.70;;;;;;;7.23;67.18;98552.50;5019056;27;96818;-90
2023/12/21 05:41:16;;;;;;;1.63;0.80;;;;;;;7.29;67.17;98553.16;5035904;27;98621;-88
2023/12/21 05:43:43;;;;;;;1.00;0.90;;;;;;;7.28;66.92;98543.63;5019223;27;98015;-87
2023/12/21 05:46:09;;;;;;;8.57;1.30;;;;;;;7.29;66.59;98537.47;5036485;27;96855;-88
2023/12/21 05:48:34;;;;;;;1.42;0.60;;;;;;;7.34;66.51;98540.72;5020914;27;96832;-90
2023/12/21 05:51:00;;;;;;;1.15;0.73;;;;;;;7.24;66.76;98520.28;5029301;27;101541;-89
2023/12/21 05:53:25;;;;;;;1.30;0.60;;;;;;;7.16;66.63;98483.28;5018489;27;101371;-89
2023/12/21 05:55:51;;;;;;;1.58;0.98;;;;;;;7.20;66.73;98497.84;5036198;27;96954;-88
2023/12/21 05:58:17;;;;;;;2.17;0.90;;;;;;;7.42;66.46;98534.19;5019900;27;96893;-88
2023/12/21 06:00:42;;;;;;;1.05;0.80;;;;;;;7.44;66.15;98516.66;5031752;27;98463;-88
2023/12/21 06:03:08;;;;;;;4.45;0.80;;;;;;;7.38;66.83;98524.81;5002265;27;100107;-82
2023/12/21 06:05:33;;;;;;;0.98;0.63;;;;;;;7.33;66.47;98513.78;5016606;27;97254;-88
2023/12/21 06:07:59;;;;;;;1.73;0.73;;;;;;;7.17;66.53;98494.56;5048168;27;96742;-88
2023/12/21 06:10:24;;;;;;;1.58;0.70;;;;;;;7.26;66.59;98517.59;5051216;27;97296;-79
2023/12/21 06:12:50;;;;;;;0.77;0.70;;;;;;;7.25;66.80;98508.09;5028484;27;98045;-78
2023/12/21 06:15:17;;;;;;;0.73;0.55;;;;;;;7.28;66.92;98513.16;5016572;27;96910;-81
2023/12/21 06:17:42;;;;;;;0.90;0.60;;;;;;;7.41;66.43;98513.38;5034403;27;97201;-85
2023/12/21 06:20:09;;;;;;;0.80;0.70;;;;;;;7.29;66.42;98514.00;5020502;28;101112;-86
2023/12/21 06:22:34;;;;;;;1.70;0.77;;;;;;;7.26;66.45;98508.00;5015691;28;101283;-85
2023/12/21 06:25:00;;;;;;;1.95;0.90;;;;;;;7.28;66.43;98501.88;5050761;27;97040;-86
2023/12/21 06:27:26;;;;;;;1.95;1.02;;;;;;;7.18;66.33;98502.31;5035270;27;96992;-86
2023/12/21 06:29:51;;;;;;;2.33;0.90;;;;;;;7.29;66.53;98511.38;5053444;27;98425;-85
2023/12/21 06:32:17;;;;;;;3.25;1.30;;;;;;;7.42;66.04;98500.25;5027174;28;100696;-86
2023/12/21 06:34:42;;;;;;;2.45;1.25;;;;;;;7.41;65.97;98495.09;5030240;27;97220;-85
2023/12/21 06:37:08;;;;;;;4.25;1.35;;;;;;;7.41;66.02;98501.16;5019200;27;97178;-86
2023/12/21 06:39:34;;;;;;;1.63;1.15;;;;;;;7.51;65.67;98491.13;5018312;27;98805;-85
2023/12/21 06:42:00;;;;;;;3.42;1.63;;;;;;;7.56;65.38;98489.09;5012993;27;101072;-86
2023/12/21 06:44:26;;;;;;;3.10;1.60;;;;;;;7.58;65.39;98489.03;5009674;27;96797;-86
2023/12/21 06:46:52;;;;;;;5.25;1.00;;;;;;;7.57;65.29;98487.38;5043479;27;96993;-86
2023/12/21 06:49:17;;;;;;;1.38;1.00;;;;;;;7.28;65.11;98442.69;5000433;27;99640;-86
2023/12/21 06:51:44;;;;;;;1.92;1.20;;;;;;;7.46;65.15;98480.06;5026383;27;98108;-86
2023/12/21 06:54:11;;;;;;;1.75;0.98;;;;;;;7.52;65.00;98481.53;5026671;27;96884;-80
2023/12/21 06:56:37;;;;;;;1.83;1.17;;;;;;;7.55;64.99;98483.97;5026146;28;96771;-79
2023/12/21 06:59:04;;;;;;;1.90;1.17;;;;;;;7.62;64.63;98483.59;5016655;27;97457;-80
2023/12/21 07:01:30;;;;;;;5.90;1.13;;;;;;;7.46;64.46;98460.00;5043840;27;98010;-80
2023/12/21 07:03:55;;;;;;;1.95;1.10;;;;;;;7.69;64.36;98481.50;5039104;27;96708;-78
2023/12/21 07:06:21;;;;;;;2.60;1.45;;;;;;;7.49;64.49;98446.81;5007269;27;96965;-78
2023/12/21 07:08:47;;;;;;;1.67;1.05;;;;;;;7.65;64.24;98473.00;5041416;27;97426;-79
2023/12/21 07:11:12;;;;;;;3.60;1.08;;;;;;;7.61;64.28;98475.81;5022967;28;97635;-79
2023/12/21 07:13:38;;;;;;;1.88;1.08;;;;;;;7.69;64.23;98479.72;5004957;27;97287;-79
2023/12/21 07:16:05;;;;;;;1.73;0.98;;;;;;;7.59;64.47;98481.16;4997607;27;97256;-80
2023/12/21 07:18:30;;;;;;;2.33;1.00;;;;;;;7.62;64.13;98480.13;5014795;27;97470;-78
2023/12/21 07:20:56;;;;;;;4.53;1.30;;;;;;;7.63;64.01;98476.59;5018301;28;98149;-79
2023/12/21 07:23:21;;;;;;;2.45;1.30;;;;;;;7.64;63.68;98467.84;5026677;27;96796;-78
2023/12/21 07:25:47;;;;;;;4.68;1.35;;;;;;;7.71;63.96;98472.66;5016375;28;97408;-77
2023/12/21 07:28:15;;;;;;;1.85;1.00;;;;;;;7.55;63.58;98434.38;5046432;27;97397;-81
2023/12/21 07:30:42;;;;;;;2.63;1.23;;;;;;;7.80;64.58;98460.06;5023727;27;97388;-88
2023/12/21 07:33:07;;;;;;;2.13;1.10;;;;;;;7.80;63.49;98452.22;5033568;27;97341;-87
2023/12/21 07:35:33;;;;;;;1.38;0.90;;;;;;;7.81;63.61;98444.28;5033113;27;97057;-89
2023/12/21 07:37:58;;;;;;;2.35;1.25;;;;;;;7.78;63.38;98446.22;5051136;27;97449;-87
2023/12/21 07:40:24;;;;;;;1.23;0.80;;;;;;;7.75;63.44;98444.63;5016408;27;101255;-90
2023/12/21 07:42:49;;;;;;;2.10;1.20;;;;;;;7.76;63.47;98427.19;5016777;27;97006;-86
2023/12/21 07:45:15;;;;;;;1.98;1.15;;;;;;;7.76;63.17;98422.78;5051899;27;97323;-84
2023/12/21 07:47:41;;;;;;;2.58;1.20;;;;;;;7.75;63.34;98409.81;5018050;27;97701;-88
2023/12/21 07:50:07;;;;;;;3.15;2.08;;;;;;;7.67;62.59;98398.00;5022090;27;97733;-89
2023/12/21 07:52:33;;;;;;;1.63;0.93;;;;;;;7.76;62.46;98408.91;5019023;27;97498;-89
2023/12/21 07:54:59;;;;;;;1.50;0.95;;;;;;;7.68;62.67;98404.09;5039601;27;96727;-86
2023/12/21 07:57:25;;;;;;;2.00;0.98;;;;;;;7.80;62.77;98400.81;4999626;27;101341;-89
2023/12/21 07:59:50;;;;;;;2.10;1.42;;;;;;;7.86;62.95;98399.66;5011849;27;100356;-92
2023/12/21 08:02:17;;;;;;;3.22;1.42;;;;;;;7.80;63.23;98384.31;5015927;27;96907;-92
2023/12/21 08:04:43;;;;;;;9.23;1.40;;;;;;;7.78;62.70;98365.25;5047541;27;97507;-86
2023/12/21 08:07:08;;;;;;;1.58;1.17;;;;;;;7.70;63.02;98350.00;5013498;27;98313;-90
2023/12/21 08:09:34;;;;;;;1.73;1.20;;;;;;;7.98;62.74;98382.47;5007168;27;97996;-90
2023/12/21 08:11:59;;;;;;;1.08;0.77;;;;;;;8.01;62.42;98377.09;5013446;27;97295;-90
2023/12/21 08:14:28;;;;;;;2.30;1.10;;;;;;;8.09;62.55;98383.59;5017972;27;96920;-89
2023/12/21 08:16:53;;;;;;;2.05;1.00;;;;;;;8.04;61.82;98380.38;5012699;27;98569;-89
2023/12/21 08:19:19;;;;;;;1.25;0.90;;;;;;;8.02;62.56;98361.31;5032190;27;98423;-89
2023/12/21 08:21:44;;;;;;;2.13;0.90;;;;;;;8.00;62.13;98368.41;5009135;27;96858;-91
2023/12/21 08:24:10;;;;;;;1.98;1.00;;;;;;;8.04;62.47;98359.47;5018323;28;97278;-91
2023/12/21 08:26:36;;;;;;;3.40;1.35;;;;;;;7.96;62.20;98358.19;5018793;27;98415;-88
2023/12/21 08:29:01;;;;;;;3.08;0.93;;;;;;;7.99;62.80;98365.88;4989409;27;101396;-89
2023/12/21 08:31:28;;;;;;;2.15;0.98;;;;;;;7.95;62.57;98357.34;5024474;27;96774;-83
2023/12/21 08:33:54;;;;;;;1.85;1.13;;;;;;;7.90;62.80;98346.31;5019066;28;97613;-88
2023/12/21 08:36:19;;;;;;;1.73;1.25;;;;;;;7.98;62.64;98351.13;5010684;27;101133;-89
2023/12/21 08:38:45;;;;;;;2.30;1.00;;;;;;;8.05;62.73;98345.47;5001317;27;96917;-89
2023/12/21 08:41:11;;;;;;;1.52;0.82;;;;;;;8.05;62.88;98336.78;5016194;27;96860;-91
2023/12/21 08:43:36;;;;;;;2.00;0.88;;;;;;;7.79;62.99;98294.63;5008720;27;97322;-88
2023/12/21 08:46:03;;;;;;;1.23;0.80;;;;;;;7.98;63.82;98320.59;5017438;27;100883;-89
2023/12/21 08:48:29;;;;;;;1.80;1.00;;;;;;;8.01;63.65;98314.38;5039017;27;98090;-86
2023/12/21 08:50:54;;;;;;;2.90;0.90;;;;;;;8.01;64.33;98306.53;5041284;28;98385;-89
2023/12/21 08:53:20;;;;;;;1.77;0.80;;;;;;;8.10;64.35;98295.56;5020068;28;97083;-89
2023/12/21 08:55:45;;;;;;;1.95;1.02;;;;;;;8.06;64.51;98287.06;5017528;28;98019;-89
2023/12/21 08:58:11;;;;;;;2.17;0.90;;;;;;;8.14;63.99;98300.53;5006594;28;101460;-89
2023/12/21 09:00:36;;;;;;;2.33;1.25;;;;;;;8.12;64.38;98284.09;5001446;28;97734;-88
2023/12/21 09:03:02;;;;;;;1.92;1.10;;;;;;;8.08;64.34;98272.13;5016338;28;97154;-90
2023/12/21 09:05:28;;;;;;;1.35;0.98;;;;;;;8.13;64.06;98272.72;5018447;28;97942;-83
2023/12/21 09:07:54;;;;;;;1.90;1.08;;;;;;;8.12;64.55;98267.59;5026594;27;97753;-86
2023/12/21 09:10:20;;;;;;;2.42;1.23;;;;;;;8.16;64.00;98248.19;4995663;27;96932;-89
2023/12/21 09:12:45;;;;;;;1.77;0.85;;;;;;;8.28;64.08;98228.34;5010874;28;96806;-90
2023/12/21 09:15:11;;;;;;;1.60;0.93;;;;;;;8.23;64.18;98236.47;4994636;28;100893;-87
2023/12/21 09:17:37;;;;;;;2.40;1.00;;;;;;;8.36;63.89;98234.81;4998645;28;102134;-88
2023/12/21 09:20:04;;;;;;;1.75;0.65;;;;;;;8.24;63.50;98232.06;5020431;27;97538;-88
2023/12/21 09:22:29;;;;;;;0.90;0.80;;;;;;;8.18;63.77;98224.59;5010526;28;96862;-90
2023/12/21 09:24:55;;;;;;;1.15;0.82;;;;;;;8.29;64.15;98216.94;5021301;28;98132;-88
2023/12/21 09:27:20;;;;;;;1.83;0.75;;;;;;;8.03;64.35;98181.84;5001010;28;101023;-87
2023/12/21 09:29:46;;;;;;;0.90;0.75;;;;;;;8.24;63.56;98204.16;5003576;28;97528;-86
2023/12/21 09:32:12;;;;;;;4.13;0.85;;;;;;;8.29;63.94;98199.50;5026130;27;96774;-87
2023/12/21 09:34:38;;;;;;;2.25;0.90;;;;;;;8.35;63.68;98195.69;5020416;28;97997;-83
2023/12/21 09:37:07;;;;;;;1.73;1.10;;;;;;;8.22;63.55;98152.91;5007644;28;97622;-84
2023/12/21 09:39:32;;;;;;;1.05;0.75;;;;;;;8.31;63.33;98175.88;5003027;28;97548;-88
2023/12/21 09:42:00;;;;;;;1.45;0.90;;;;;;;8.28;63.64;98169.03;5004912;28;98345;-83
2023/12/21 09:44:30;;;;;;;1.60;0.98;;;;;;;8.29;64.39;98157.69;5023668;27;99688;-83
2023/12/21 09:46:56;;;;;;;1.48;0.93;;;;;;;8.22;64.15;98158.13;5020356;27;97571;-87
2023/12/21 09:49:22;;;;;;;2.65;1.05;;;;;;;8.19;64.59;98138.22;5024972;27;98513;-89
2023/12/21 09:51:49;;;;;;;2.75;1.52;;;;;;;8.19;64.21;98140.00;5010253;27;98610;-86
2023/12/21 09:54:16;;;;;;;1.55;0.95;;;;;;;8.13;64.19;98133.38;5025975;27;97582;-89
2023/12/21 09:56:43;;;;;;;3.50;0.95;;;;;;;8.02;64.47;98086.13;5006256;27;98663;-89
2023/12/21 09:59:10;;;;;;;7.90;1.88;;;;;;;8.20;64.54;98099.88;5022117;27;97317;-87
2023/12/21 10:01:36;;;;;;;1.95;1.10;;;;;;;8.15;65.03;98101.00;5043745;27;97431;-86
2023/12/21 10:04:01;;;;;;;1.73;1.05;;;;;;;8.15;65.37;98092.31;5007844;27;100969;-89
2023/12/21 10:06:27;;;;;;;3.40;1.52;;;;;;;8.04;65.18;98077.25;5003252;27;101524;-86
2023/12/21 10:08:53;;;;;;;3.70;0.85;;;;;;;8.18;65.20;98079.06;5011016;27;97768;-89
2023/12/21 10:11:19;;;;;;;0.70;0.70;;;;;;;8.14;65.44;98075.78;5046871;27;97476;-91
2023/12/21 10:13:48;;;;;;;17.00;7.10;;;;;;;8.16;65.89;98065.25;5013434;27;101511;-83
2023/12/21 10:16:13;;;;;;;2.55;1.20;;;;;;;7.96;65.67;98035.06;5032555;27;98901;-87
2023/12/21 10:18:40;;;;;;;2.45;0.80;;;;;;;7.84;65.94;98005.28;5028295;27;98157;-89
2023/12/21 10:21:08;;;;;;;3.42;1.40;;;;;;;7.91;65.34;98006.63;5046074;27;97324;-90
2023/12/21 10:23:33;;;;;;;4.53;2.00;;;;;;;8.14;65.69;98036.59;5027642;27;98290;-87
2023/12/21 10:25:59;;;;;;;6.90;2.47;;;;;;;7.87;66.02;97983.38;5024730;27;97413;-89
2023/12/21 10:28:25;;;;;;;4.07;1.13;;;;;;;8.01;66.11;98006.91;4994476;27;98375;-90
2023/12/21 10:30:57;;;;;;;3.17;1.20;;;;;;;7.99;65.73;98005.31;5044394;27;98170;-88
2023/12/21 10:33:25;;;;;;;1.45;0.90;;;;;;;7.96;65.85;97987.22;5026697;27;99275;-88
2023/12/21 10:35:51;;;;;;;3.40;1.63;;;;;;;8.00;66.48;97986.06;5023618;27;100924;-88
2023/12/21 10:38:18;;;;;;;3.00;1.55;;;;;;;8.08;66.69;97970.78;5045927;27;98178;-85
2023/12/21 10:40:45;;;;;;;1.95;1.13;;;;;;;7.90;66.04;97954.44;5025151;27;97330;-87
2023/12/21 10:43:10;;;;;;;3.30;1.48;;;;;;;8.06;66.96;97954.38;5005936;27;98070;-86
2023/12/21 10:45:36;;;;;;;3.97;1.80;;;;;;;8.05;67.03;97952.69;5006839;27;98119;-84
2023/12/21 10:48:12;;;;;;;4.15;1.88;;;;;;;7.94;66.52;97922.84;5044945;27;96746;-85
2023/12/21 10:50:38;;;;;;;9.60;3.90;;;;;;;7.94;66.51;97920.22;5023295;27;98433;-87
2023/12/21 10:53:04;;;;;;;5.88;2.63;;;;;;;8.10;65.95;97932.34;5025182;27;98458;-84
2023/12/21 10:55:31;;;;;;;4.05;2.20;;;;;;;8.04;66.26;97915.25;5024801;27;99041;-84
2023/12/21 10:57:56;;;;;;;2.05;1.15;;;;;;;7.72;65.92;97849.34;5008735;27;98177;-83
2023/12/21 11:00:22;;;;;;;5.15;2.15;;;;;;;7.89;66.12;97866.59;5024554;27;97476;-82
2023/12/21 11:02:48;;;;;;;2.05;1.27;;;;;;;8.08;66.36;97884.56;5041066;27;97981;-81
2023/12/21 11:05:22;;;;;;;7.20;3.05;;;;;;;7.85;65.69;97837.22;5007856;27;99083;-83
2023/12/21 11:07:49;;;;;;;1.73;1.02;;;;;;;8.13;66.13;97874.66;5023879;27;97383;-86
2023/12/21 11:10:19;;;;;;;31.85;11.57;;;;;;;8.17;65.81;97839.53;5007974;27;98331;-85
2023/12/21 11:12:44;;;;;;;15.68;7.97;;;;;;;8.26;65.52;97840.75;5020632;27;98552;-82
2023/12/21 11:15:11;;;;;;;6.15;3.15;;;;;;;8.18;65.48;97817.72;5021487;27;98445;-85
2023/12/21 11:17:40;;;;;;;5.25;1.95;;;;;;;8.19;64.81;97802.88;5007513;27;97134;-88
2023/12/21 11:20:07;;;;;;;1.55;0.90;;;;;;;8.31;64.99;97813.38;5010380;27;98149;-88
2023/12/21 11:22:37;;;;;;;1.63;0.90;;;;;;;8.30;64.71;97827.38;4991745;27;101002;-88
2023/12/21 11:25:08;;;;;;;2.70;1.30;;;;;;;8.29;64.84;97817.00;5006724;27;98048;-82
2023/12/21 11:27:36;;;;;;;3.05;1.02;;;;;;;8.30;67.24;97790.78;5024252;27;98244;-83
2023/12/21 11:30:11;;;;;;;4.38;1.73;;;;;;;8.55;66.71;97810.13;5020076;27;97305;-87
2023/12/21 11:32:48;;;;;;;0.98;0.80;;;;;;;8.44;65.71;97797.78;5039758;27;99031;-87